Terminal Aerodrome Forecast
Issued by NWS

Home | Current Version | Previous Version | Text Only | Print | Product List | Glossary On
Versions: 1 2 3 4 5 6 7 8 9 10 11 12 13 14 15 16 17
489
FTUS42 KTBW 270520
TAFRSW
TAF
KRSW 270520Z 2706/2806 VRB03KT P6SM VCTS BKN050CB BKN250
     FM270800 00000KT P6SM SCT050 BKN250
     FM271400 14004KT P6SM FEW030 SCT250
     FM271700 21006KT P6SM SCT040 SCT250
     FM272100 25008KT P6SM VCTS SCT045CB BKN250
     FM280200 VRB03KT P6SM BKN050 BKN250=

USA.gov is the U.S. government's official web portal to all federal, state and local government web resources and services.